createdAt,value
2023-04-09T00:00:22.690Z,23.80
2023-04-09T00:02:51.416Z,24.43
2023-04-09T00:05:19.942Z,24.17
2023-04-09T00:07:48.469Z,26.90
2023-04-09T00:10:18.578Z,25.50
2023-04-09T00:12:47.124Z,23.63
2023-04-09T00:15:27.785Z,25.77
2023-04-09T00:17:59.657Z,26.47
2023-04-09T00:20:28.368Z,26.77
2023-04-09T00:22:56.925Z,25.93
2023-04-09T00:25:26.938Z,25.80
2023-04-09T00:27:55.679Z,25.20
2023-04-09T00:30:24.375Z,28.00
2023-04-09T00:32:53.134Z,26.50
2023-04-09T00:35:21.976Z,24.70
2023-04-09T00:37:50.488Z,25.60
2023-04-09T00:40:19.059Z,27.43
2023-04-09T00:42:49.663Z,26.67
2023-04-09T00:45:18.298Z,27.57
2023-04-09T00:47:46.944Z,33.77
2023-04-09T00:50:15.847Z,29.97
2023-04-09T00:52:44.847Z,33.97
2023-04-09T00:55:15.059Z,30.60
2023-04-09T00:57:43.587Z,32.07
2023-04-09T01:00:14.893Z,34.53
2023-04-09T01:02:43.876Z,30.13
2023-04-09T01:05:14.095Z,29.87
2023-04-09T01:07:56.380Z,31.67
2023-04-09T01:10:32.344Z,34.90
2023-04-09T01:13:09.799Z,35.73
2023-04-09T01:15:44.491Z,32.70
2023-04-09T01:18:17.741Z,34.37
2023-04-09T01:21:05.244Z,36.17
2023-04-09T01:23:46.715Z,34.00
2023-04-09T01:26:24.288Z,31.73
2023-04-09T01:28:56.153Z,32.63
2023-04-09T01:31:31.638Z,33.23
2023-04-09T01:34:01.655Z,32.87
2023-04-09T01:36:32.579Z,30.40
2023-04-09T01:39:02.600Z,33.03
2023-04-09T01:41:34.050Z,27.97
2023-04-09T01:44:05.973Z,34.83
2023-04-09T01:46:36.672Z,31.23
2023-04-09T01:49:06.481Z,29.53
2023-04-09T01:51:35.556Z,29.63
2023-04-09T01:54:04.296Z,33.23
2023-04-09T01:56:42.743Z,31.60
2023-04-09T01:59:13.054Z,30.37
2023-04-09T02:01:48.084Z,31.03
2023-04-09T02:04:24.273Z,33.43
2023-04-09T02:06:59.531Z,32.30
2023-04-09T02:09:33.545Z,31.70
2023-04-09T02:12:05.526Z,36.37
2023-04-09T02:14:37.299Z,36.43
2023-04-09T02:17:06.241Z,36.23
2023-04-09T02:19:42.012Z,36.03
2023-04-09T02:22:11.035Z,35.03
2023-04-09T02:24:40.613Z,34.03
2023-04-09T02:27:09.749Z,35.77
2023-04-09T02:29:40.672Z,35.13
2023-04-09T02:32:09.432Z,36.27
2023-04-09T02:34:38.019Z,39.70
2023-04-09T02:37:06.936Z,39.87
2023-04-09T02:39:35.449Z,38.20
2023-04-09T02:42:03.981Z,35.07
2023-04-09T02:44:32.765Z,39.63
2023-04-09T02:47:03.381Z,37.57
2023-04-09T02:49:32.016Z,41.58
2023-04-09T02:52:00.601Z,27.87
2023-04-09T02:54:29.124Z,37.90
2023-04-09T02:56:57.705Z,44.57
2023-04-09T02:59:26.266Z,43.93
2023-04-09T03:01:54.916Z,46.97
2023-04-09T03:04:25.128Z,42.67
2023-04-09T03:06:53.703Z,47.20
2023-04-09T03:09:22.213Z,43.00
2023-04-09T03:11:50.763Z,42.60
2023-04-09T03:14:19.245Z,42.40
2023-04-09T03:16:47.744Z,40.30
2023-04-09T03:19:16.388Z,40.20
2023-04-09T03:21:46.540Z,41.37
2023-04-09T03:24:15.141Z,40.67
2023-04-09T03:26:43.627Z,37.17
2023-04-09T03:29:12.115Z,35.87
2023-04-09T03:31:40.713Z,39.33
2023-04-09T03:34:09.457Z,36.97
2023-04-09T03:36:38.152Z,37.17
2023-04-09T03:39:08.147Z,40.43
2023-04-09T03:41:36.683Z,44.07
2023-04-09T03:44:05.385Z,44.57
2023-04-09T03:46:34.049Z,42.50
2023-04-09T03:49:02.594Z,43.27
2023-04-09T03:51:32.094Z,41.03
2023-04-09T03:54:00.967Z,41.03
2023-04-09T03:56:30.934Z,37.20
2023-04-09T03:58:59.519Z,38.03
2023-04-09T04:01:28.070Z,34.93
2023-04-09T04:03:56.653Z,35.77
2023-04-09T04:06:25.852Z,35.47
2023-04-09T04:08:54.536Z,34.27
2023-04-09T04:11:23.184Z,36.50
2023-04-09T04:13:53.079Z,35.43
2023-04-09T04:16:21.637Z,43.03
2023-04-09T04:18:50.379Z,46.67
2023-04-09T04:21:19.266Z,42.23
2023-04-09T04:23:47.846Z,46.50
2023-04-09T04:26:16.416Z,44.60
2023-04-09T04:28:45.063Z,43.50
2023-04-09T04:31:18.171Z,50.03
2023-04-09T04:33:46.761Z,41.00
2023-04-09T04:36:16.659Z,46.53
2023-04-09T04:38:45.213Z,44.87
2023-04-09T04:41:13.797Z,45.57
2023-04-09T04:43:42.718Z,54.30
2023-04-09T04:46:11.404Z,47.00
2023-04-09T04:48:41.395Z,45.17
2023-04-09T04:51:09.912Z,41.13
2023-04-09T04:53:38.428Z,38.47
2023-04-09T04:56:07.506Z,40.20
2023-04-09T04:58:36.064Z,37.40
2023-04-09T05:01:04.623Z,34.97
2023-04-09T05:03:33.347Z,36.33
2023-04-09T05:06:03.436Z,40.40
2023-04-09T05:08:32.013Z,40.67
2023-04-09T05:11:00.615Z,40.80
2023-04-09T05:13:29.144Z,40.93
2023-04-09T05:15:57.607Z,35.87
2023-04-09T05:18:26.283Z,37.03
2023-04-09T05:20:54.773Z,40.03
2023-04-09T05:23:24.766Z,35.47
2023-04-09T05:25:53.281Z,32.00
2023-04-09T05:28:21.800Z,30.37
2023-04-09T05:30:50.667Z,28.92
2023-04-09T05:33:19.201Z,23.77
2023-04-09T05:35:47.928Z,24.47
2023-04-09T05:38:16.703Z,26.27
2023-04-09T05:40:46.655Z,24.23
2023-04-09T05:43:15.281Z,24.07
2023-04-09T05:45:43.842Z,27.63
2023-04-09T05:48:12.382Z,26.87
2023-04-09T05:50:53.378Z,23.57
2023-04-09T05:53:23.983Z,23.83
2023-04-09T05:55:54.235Z,26.97
2023-04-09T05:58:23.056Z,26.13
2023-04-09T06:00:53.001Z,22.90
2023-04-09T06:03:21.889Z,19.23
2023-04-09T06:05:50.580Z,19.10
2023-04-09T06:08:19.149Z,19.23
2023-04-09T06:10:47.764Z,18.07
2023-04-09T06:13:17.662Z,16.30
2023-04-09T06:15:46.293Z,17.83
2023-04-09T06:18:14.862Z,17.03
2023-04-09T06:20:43.487Z,15.50
2023-04-09T06:23:12.085Z,17.48
2023-04-09T06:25:40.804Z,20.33
2023-04-09T06:28:09.357Z,18.37
2023-04-09T06:30:39.356Z,18.50
2023-04-09T06:33:07.968Z,18.60
2023-04-09T06:35:37.117Z,19.37
2023-04-09T06:38:05.730Z,19.87
2023-04-09T06:40:34.356Z,18.57
2023-04-09T06:43:03.233Z,20.33
2023-04-09T06:45:32.769Z,20.33
2023-04-09T06:48:03.382Z,20.53
2023-04-09T06:50:32.159Z,22.77
2023-04-09T06:53:00.962Z,21.70
2023-04-09T06:55:29.637Z,22.50
2023-04-09T06:57:58.223Z,21.67
2023-04-09T07:00:27.124Z,19.63
2023-04-09T07:02:55.997Z,20.50
2023-04-09T07:05:26.530Z,18.47
2023-04-09T07:07:55.286Z,18.07
2023-04-09T07:10:24.041Z,17.65
2023-04-09T07:12:56.113Z,19.00
2023-04-09T07:15:25.025Z,19.43
2023-04-09T07:17:53.690Z,23.10
2023-04-09T07:20:22.534Z,21.60
2023-04-09T07:23:05.016Z,21.97
2023-04-09T07:25:34.465Z,22.10
2023-04-09T07:28:03.205Z,20.07
2023-04-09T07:30:31.917Z,20.30
2023-04-09T07:33:00.598Z,20.57
2023-04-09T07:35:29.399Z,18.57
2023-04-09T07:37:59.676Z,18.30
2023-04-09T07:40:28.481Z,17.33
2023-04-09T07:42:58.307Z,16.10
2023-04-09T07:45:27.171Z,15.73
2023-04-09T07:47:55.883Z,15.13
2023-04-09T07:50:24.552Z,17.07
2023-04-09T07:52:53.122Z,16.63
2023-04-09T07:55:25.857Z,14.73
2023-04-09T07:57:54.897Z,16.87
2023-04-09T08:00:24.160Z,13.97
2023-04-09T08:02:53.050Z,13.70
2023-04-09T08:05:22.072Z,15.80
2023-04-09T08:07:52.364Z,14.43
2023-04-09T08:10:21.132Z,15.47
2023-04-09T08:12:51.971Z,14.97
2023-04-09T08:15:20.678Z,15.73
2023-04-09T08:17:49.439Z,17.25
2023-04-09T08:20:18.239Z,15.93
2023-04-09T08:22:47.066Z,15.17
2023-04-09T08:25:15.873Z,13.10
2023-04-09T08:27:44.578Z,15.20
2023-04-09T08:30:16.345Z,26.60
2023-04-09T08:32:46.214Z,30.63
2023-04-09T08:35:15.220Z,35.13
2023-04-09T08:37:44.231Z,25.00
2023-04-09T08:40:13.510Z,75.10
2023-04-09T08:42:46.703Z,39.90
2023-04-09T08:45:17.319Z,15.00
2023-04-09T08:47:49.510Z,12.60
2023-04-09T08:50:18.644Z,14.20
2023-04-09T08:52:49.450Z,27.15
2023-04-09T08:55:18.158Z,22.50
2023-04-09T08:57:46.772Z,22.95
2023-04-09T09:00:17.285Z,25.67
2023-04-09T09:03:04.356Z,27.80
2023-04-09T09:05:40.524Z,34.35
2023-04-09T09:08:10.056Z,37.22
2023-04-09T09:10:43.985Z,37.92
2023-04-09T09:13:23.931Z,31.80
2023-04-09T09:15:56.452Z,36.65
2023-04-09T09:18:40.598Z,28.70
2023-04-09T09:21:13.207Z,26.75
2023-04-09T09:23:42.582Z,23.13
2023-04-09T09:26:16.606Z,22.10
2023-04-09T09:28:45.897Z,18.95
2023-04-09T09:31:17.338Z,20.23
2023-04-09T09:33:46.898Z,18.00
2023-04-09T09:36:16.236Z,18.05
2023-04-09T09:39:10.580Z,16.65
2023-04-09T09:41:39.985Z,20.80
2023-04-09T09:44:09.426Z,18.27
2023-04-09T09:46:41.645Z,27.70
2023-04-09T09:49:11.009Z,24.40
2023-04-09T09:51:41.658Z,21.88
2023-04-09T09:54:13.315Z,25.67
2023-04-09T09:56:43.674Z,20.92
2023-04-09T09:59:21.483Z,23.77
2023-04-09T10:01:58.497Z,22.17
2023-04-09T10:04:31.166Z,27.17
2023-04-09T10:07:01.484Z,24.35
2023-04-09T10:09:30.540Z,19.02
2023-04-09T10:12:02.664Z,20.13
2023-04-09T10:14:32.383Z,19.58
2023-04-09T10:17:09.130Z,22.33
2023-04-09T10:19:43.180Z,21.58
2023-04-09T10:22:19.046Z,21.67
2023-04-09T10:24:48.552Z,21.55
2023-04-09T10:27:18.584Z,21.30
2023-04-09T10:29:48.298Z,21.23
2023-04-09T10:32:23.824Z,21.55
2023-04-09T10:34:53.301Z,21.52
2023-04-09T10:37:24.212Z,22.00
2023-04-09T10:39:53.844Z,15.32
2023-04-09T10:42:25.015Z,38.78
2023-04-09T10:45:07.766Z,21.08
2023-04-09T10:48:00.952Z,15.68
2023-04-09T10:50:36.643Z,18.67
2023-04-09T10:53:30.168Z,17.70
2023-04-09T10:55:59.004Z,15.90
2023-04-09T10:58:30.093Z,63.72
2023-04-09T11:01:03.386Z,20.13
2023-04-09T11:03:46.421Z,16.90
2023-04-09T11:06:18.067Z,15.65
2023-04-09T11:09:00.841Z,18.42
2023-04-09T11:11:30.307Z,17.10
2023-04-09T11:14:01.849Z,17.73
2023-04-09T11:16:31.966Z,19.60
2023-04-09T11:19:02.048Z,15.88
2023-04-09T11:21:31.552Z,19.10
2023-04-09T11:24:00.174Z,15.07
2023-04-09T11:26:37.537Z,18.67
2023-04-09T11:29:10.226Z,19.95
2023-04-09T11:31:38.935Z,19.38
2023-04-09T11:34:12.597Z,72.97
2023-04-09T11:36:42.038Z,23.48
2023-04-09T11:39:10.997Z,23.92
2023-04-09T11:41:40.441Z,16.45
2023-04-09T11:44:10.302Z,16.40
2023-04-09T11:46:40.816Z,25.95
2023-04-09T11:49:11.177Z,43.15
2023-04-09T11:51:40.116Z,25.38
2023-04-09T11:54:09.294Z,16.80
2023-04-09T11:56:38.419Z,17.02
2023-04-09T11:59:07.218Z,16.80
2023-04-09T12:01:36.539Z,14.68
2023-04-09T12:04:06.009Z,14.35
2023-04-09T12:06:42.852Z,15.15
2023-04-09T12:09:14.458Z,14.40
2023-04-09T12:11:45.799Z,14.23
2023-04-09T12:14:16.490Z,17.45
2023-04-09T12:16:45.374Z,17.67
2023-04-09T12:19:15.970Z,17.88
2023-04-09T12:21:50.157Z,18.02
2023-04-09T12:24:19.890Z,21.75
2023-04-09T12:26:49.654Z,24.05
2023-04-09T12:29:21.905Z,21.88
2023-04-09T12:31:50.661Z,20.38
2023-04-09T12:34:19.340Z,25.77
2023-04-09T12:36:49.484Z,25.20
2023-04-09T12:39:18.127Z,22.13
2023-04-09T12:41:46.808Z,22.48
2023-04-09T12:44:15.563Z,23.35
2023-04-09T12:46:44.419Z,22.17
2023-04-09T12:49:13.086Z,21.55
2023-04-09T12:51:41.862Z,21.33
2023-04-09T12:54:12.492Z,19.60
2023-04-09T12:56:41.202Z,20.38
2023-04-09T12:59:09.840Z,20.08
2023-04-09T13:01:39.262Z,68.90
2023-04-09T13:04:09.471Z,34.40
2023-04-09T13:06:38.329Z,25.75
2023-04-09T13:09:07.120Z,32.50
2023-04-09T13:11:37.439Z,38.42
2023-04-09T13:14:06.137Z,40.15
2023-04-09T13:16:35.019Z,35.67
2023-04-09T13:19:03.636Z,30.55
2023-04-09T13:21:32.320Z,26.25
2023-04-09T13:24:00.985Z,23.23
2023-04-09T13:26:29.724Z,18.52
2023-04-09T13:29:00.881Z,16.73
2023-04-09T13:31:50.061Z,20.27
2023-04-09T13:34:19.144Z,14.15
2023-04-09T13:36:48.717Z,25.63
2023-04-09T13:39:17.530Z,26.35
2023-04-09T13:41:46.345Z,32.47
2023-04-09T13:44:16.604Z,29.70
2023-04-09T13:46:45.351Z,28.73
2023-04-09T13:49:14.289Z,27.88
2023-04-09T13:51:42.977Z,21.75
2023-04-09T13:54:16.340Z,59.90
2023-04-09T13:56:47.864Z,61.37
2023-04-09T13:59:17.939Z,37.78
2023-04-09T14:01:46.651Z,19.08
2023-04-09T14:04:15.746Z,22.05
2023-04-09T14:06:44.658Z,26.17
2023-04-09T14:09:13.752Z,26.27
2023-04-09T14:11:42.485Z,25.77
2023-04-09T14:14:11.254Z,28.00
2023-04-09T14:16:41.542Z,20.50
2023-04-09T14:19:10.595Z,23.17
2023-04-09T14:21:41.720Z,21.08
2023-04-09T14:24:26.612Z,20.80
2023-04-09T14:26:55.627Z,18.87
2023-04-09T14:29:24.531Z,33.60
2023-04-09T14:31:57.397Z,39.60
2023-04-09T14:34:26.114Z,27.55
2023-04-09T14:36:54.627Z,25.20
2023-04-09T14:39:23.269Z,19.08
2023-04-09T14:41:58.108Z,13.43
2023-04-09T14:44:28.672Z,11.53
2023-04-09T14:47:00.234Z,11.80
2023-04-09T14:49:29.114Z,11.03
2023-04-09T14:51:59.876Z,11.20
2023-04-09T14:54:30.684Z,10.47
2023-04-09T14:57:00.007Z,10.97
2023-04-09T14:59:44.516Z,11.27
2023-04-09T15:02:24.910Z,11.20
2023-04-09T15:04:54.231Z,13.27
2023-04-09T15:07:37.979Z,12.27
2023-04-09T15:10:09.980Z,11.23
2023-04-09T15:12:42.315Z,12.50
2023-04-09T15:15:12.096Z,12.10
2023-04-09T15:17:42.384Z,12.50
2023-04-09T15:20:13.315Z,12.70
2023-04-09T15:22:42.022Z,10.48
2023-04-09T15:25:13.723Z,10.65
2023-04-09T15:27:45.230Z,11.07
2023-04-09T15:30:14.403Z,10.73
2023-04-09T15:32:44.460Z,15.02
2023-04-09T15:35:14.584Z,11.65
2023-04-09T15:37:43.112Z,13.07
2023-04-09T15:40:17.460Z,14.80
2023-04-09T15:42:52.113Z,14.95
2023-04-09T15:45:20.814Z,9.60
2023-04-09T15:47:51.051Z,13.77
2023-04-09T15:50:41.830Z,13.13
2023-04-09T15:53:17.690Z,13.70
2023-04-09T15:55:46.809Z,9.40
2023-04-09T16:00:58.420Z,12.50
2023-04-09T16:03:28.483Z,16.00
2023-04-09T16:06:01.834Z,14.93
2023-04-09T16:08:33.967Z,13.38
2023-04-09T16:11:02.725Z,15.20
2023-04-09T16:13:34.488Z,22.95
2023-04-09T16:16:19.860Z,19.20
2023-04-09T16:18:58.524Z,25.30
2023-04-09T16:21:28.746Z,19.77
2023-04-09T16:26:48.880Z,21.55
2023-04-09T16:29:18.124Z,18.65
2023-04-09T16:31:47.121Z,28.43
2023-04-09T16:34:17.304Z,31.30
2023-04-09T16:36:46.029Z,27.30
2023-04-09T16:39:16.397Z,27.48
2023-04-09T16:41:49.865Z,27.55
2023-04-09T16:44:21.418Z,20.53
2023-04-09T16:46:52.183Z,20.77
2023-04-09T16:49:32.141Z,19.08
2023-04-09T16:52:00.885Z,19.85
2023-04-09T16:54:29.689Z,21.90
2023-04-09T16:57:01.137Z,26.70
2023-04-09T16:59:29.821Z,31.17
2023-04-09T17:02:10.434Z,27.67
2023-04-09T17:07:43.522Z,15.60
2023-04-09T17:10:23.926Z,20.17
2023-04-09T17:13:37.385Z,25.30
2023-04-09T17:16:10.832Z,15.85
2023-04-09T17:18:39.590Z,21.80
2023-04-09T17:21:09.855Z,32.03
2023-04-09T17:23:42.957Z,26.50
2023-04-09T17:26:11.729Z,28.10
2023-04-09T17:28:47.152Z,27.73
2023-04-09T17:31:19.582Z,24.77
2023-04-09T17:33:48.864Z,30.10
2023-04-09T17:36:40.393Z,35.20
2023-04-09T17:39:20.719Z,34.57
2023-04-09T17:41:49.410Z,33.57
2023-04-09T17:44:21.053Z,38.97
2023-04-09T17:46:55.832Z,24.75
2023-04-09T17:49:24.482Z,23.27
2023-04-09T17:51:54.853Z,32.50
2023-04-09T17:54:27.611Z,24.47
2023-04-09T17:56:57.307Z,18.17
2023-04-09T17:59:33.107Z,20.17
2023-04-09T18:02:02.578Z,21.47
2023-04-09T18:04:31.962Z,21.13
2023-04-09T18:07:02.506Z,16.93
2023-04-09T18:09:31.202Z,14.33
2023-04-09T18:12:01.635Z,15.70
2023-04-09T18:14:40.889Z,12.70
2023-04-09T18:17:09.675Z,15.13
2023-04-09T18:19:38.393Z,18.10
2023-04-09T18:22:08.471Z,14.47
2023-04-09T18:24:37.074Z,15.03
2023-04-09T18:27:05.885Z,14.33
2023-04-09T18:29:34.424Z,17.27
2023-04-09T18:32:02.938Z,14.80
2023-04-09T18:34:31.736Z,14.27
2023-04-09T18:37:01.673Z,13.83
2023-04-09T18:39:34.602Z,12.13
2023-04-09T18:42:03.784Z,16.90
2023-04-09T18:44:36.372Z,12.47
2023-04-09T18:47:06.020Z,14.93
2023-04-09T18:49:34.858Z,14.97
2023-04-09T18:52:05.828Z,14.20
2023-04-09T18:54:36.775Z,15.80
2023-04-09T18:57:09.284Z,18.30
2023-04-09T18:59:48.827Z,18.97
2023-04-09T19:02:17.861Z,15.63
2023-04-09T19:04:49.205Z,13.98
2023-04-09T19:07:18.379Z,19.50
2023-04-09T19:09:48.371Z,27.30
2023-04-09T19:12:17.505Z,15.90
2023-04-09T19:14:46.287Z,13.97
2023-04-09T19:17:14.980Z,14.03
2023-04-09T19:19:43.842Z,13.03
2023-04-09T19:22:14.897Z,13.50
2023-04-09T19:24:45.849Z,14.43
2023-04-09T19:27:15.898Z,13.63
2023-04-09T19:29:47.595Z,18.63
2023-04-09T19:32:16.509Z,16.00
2023-04-09T19:34:45.022Z,15.30
2023-04-09T19:37:15.266Z,16.07
2023-04-09T19:39:43.918Z,15.13
2023-04-09T19:42:12.674Z,15.50
2023-04-09T19:44:42.731Z,14.73
2023-04-09T19:47:11.539Z,24.63
2023-04-09T19:49:40.306Z,51.92
2023-04-09T19:52:09.470Z,27.23
2023-04-09T19:54:38.626Z,39.53
2023-04-09T19:57:07.386Z,21.87
2023-04-09T19:59:39.953Z,19.80
2023-04-09T20:02:10.225Z,16.47
2023-04-09T20:04:40.630Z,19.10
2023-04-09T20:07:09.330Z,16.00
2023-04-09T20:09:41.491Z,46.97
2023-04-09T20:12:11.215Z,19.80
2023-04-09T20:14:39.914Z,17.13
2023-04-09T20:17:10.940Z,15.17
2023-04-09T20:19:40.168Z,16.80
2023-04-09T20:22:08.814Z,17.07
2023-04-09T20:24:39.765Z,17.83
2023-04-09T20:27:08.392Z,18.67
2023-04-09T20:29:37.071Z,18.50
2023-04-09T20:32:05.826Z,18.60
2023-04-09T20:34:36.857Z,16.43
2023-04-09T20:37:06.793Z,20.07
2023-04-09T20:39:35.503Z,20.20
2023-04-09T20:42:04.038Z,21.73
2023-04-09T20:44:38.887Z,23.80
2023-04-09T20:47:08.210Z,23.03
2023-04-09T20:49:38.190Z,22.87
2023-04-09T20:52:09.347Z,24.70
2023-04-09T20:54:38.231Z,21.13
2023-04-09T20:57:07.296Z,21.20
2023-04-09T20:59:35.893Z,20.87
2023-04-09T21:02:04.978Z,21.03
2023-04-09T21:04:33.724Z,21.33
2023-04-09T21:07:03.800Z,22.03
2023-04-09T21:09:32.446Z,23.67
2023-04-09T21:12:02.991Z,25.60
2023-04-09T21:14:32.105Z,25.80
2023-04-09T21:17:00.896Z,23.87
2023-04-09T21:19:29.642Z,21.43
2023-04-09T21:21:58.145Z,23.63
2023-04-09T21:24:28.215Z,22.30
2023-04-09T21:26:57.687Z,25.80
2023-04-09T21:29:26.385Z,25.47
2023-04-09T21:31:54.953Z,28.63
2023-04-09T21:34:23.492Z,33.87
2023-04-09T21:37:05.453Z,35.03
2023-04-09T21:39:35.756Z,38.97
2023-04-09T21:42:04.355Z,25.73
2023-04-09T21:44:38.793Z,24.00
2023-04-09T21:47:16.388Z,22.00
2023-04-09T21:49:53.291Z,20.77
2023-04-09T21:52:25.330Z,21.23
2023-04-09T21:55:00.610Z,20.73
2023-04-09T21:57:30.783Z,21.43
2023-04-09T22:00:06.074Z,22.27
2023-04-09T22:02:35.064Z,20.80
2023-04-09T22:05:03.917Z,25.17
2023-04-09T22:07:32.682Z,21.60
2023-04-09T22:10:02.634Z,21.03
2023-04-09T22:12:31.341Z,23.33
2023-04-09T22:14:59.982Z,25.53
2023-04-09T22:17:28.581Z,25.27
2023-04-09T22:19:57.238Z,24.33
2023-04-09T22:22:25.932Z,26.33
2023-04-09T22:24:54.488Z,27.20
2023-04-09T22:27:26.018Z,28.10
2023-04-09T22:29:54.835Z,28.80
2023-04-09T22:32:23.455Z,29.17
2023-04-09T22:34:52.258Z,29.50
2023-04-09T22:37:21.137Z,29.40
2023-04-09T22:39:50.031Z,35.72
2023-04-09T22:42:18.681Z,23.80
2023-04-09T22:44:48.652Z,29.73
2023-04-09T22:47:17.576Z,24.67
2023-04-09T22:49:55.614Z,29.17
2023-04-09T22:52:24.253Z,24.50
2023-04-09T22:54:52.954Z,26.50
2023-04-09T22:57:21.540Z,40.33
2023-04-09T22:59:51.686Z,24.53
2023-04-09T23:02:20.410Z,53.95
2023-04-09T23:04:49.224Z,27.63
2023-04-09T23:07:17.859Z,31.57
2023-04-09T23:09:46.933Z,33.77
2023-04-09T23:12:15.779Z,31.03
2023-04-09T23:14:44.406Z,27.83
2023-04-09T23:17:14.608Z,28.07
2023-04-09T23:19:43.778Z,29.90
2023-04-09T23:22:12.386Z,33.07
2023-04-09T23:24:41.039Z,35.53
2023-04-09T23:27:09.578Z,34.57
2023-04-09T23:29:38.369Z,34.60
2023-04-09T23:32:07.260Z,33.57
2023-04-09T23:34:37.277Z,34.43
2023-04-09T23:37:05.906Z,34.53
2023-04-09T23:39:34.428Z,31.87
2023-04-09T23:42:03.323Z,31.40
2023-04-09T23:44:32.745Z,31.63
2023-04-09T23:47:01.632Z,33.23
2023-04-09T23:49:30.750Z,35.20
2023-04-09T23:52:00.742Z,35.97
2023-04-09T23:54:29.560Z,35.77
2023-04-09T23:56:58.700Z,30.50
2023-04-09T23:59:27.606Z,32.67
